sensor_id;sensor_type;location;lat;lon;timestamp;P1;durP1;ratioP1;P2;durP2;ratioP2
78622;SDS011;67943;54.412;9.502;2023-11-18T00:01:16;18.88;;;10.93;;
78622;SDS011;67943;54.412;9.502;2023-11-18T00:06:18;16.67;;;9.52;;
78622;SDS011;67943;54.412;9.502;2023-11-18T00:11:19;17.05;;;8.85;;
78622;SDS011;67943;54.412;9.502;2023-11-18T00:16:22;15.88;;;8.60;;
78622;SDS011;67943;54.412;9.502;2023-11-18T00:21:24;13.50;;;7.95;;
78622;SDS011;67943;54.412;9.502;2023-11-18T00:26:25;14.65;;;8.32;;
78622;SDS011;67943;54.412;9.502;2023-11-18T00:31:28;16.85;;;9.65;;
78622;SDS011;67943;54.412;9.502;2023-11-18T00:36:30;16.85;;;9.80;;
78622;SDS011;67943;54.412;9.502;2023-11-18T00:41:31;17.50;;;9.73;;
78622;SDS011;67943;54.412;9.502;2023-11-18T00:46:34;15.32;;;9.25;;
78622;SDS011;67943;54.412;9.502;2023-11-18T00:51:36;17.42;;;10.07;;
78622;SDS011;67943;54.412;9.502;2023-11-18T00:56:38;16.90;;;9.52;;
78622;SDS011;67943;54.412;9.502;2023-11-18T01:01:41;18.83;;;10.10;;
78622;SDS011;67943;54.412;9.502;2023-11-18T01:06:43;15.40;;;9.05;;
78622;SDS011;67943;54.412;9.502;2023-11-18T01:11:44;18.52;;;9.75;;
78622;SDS011;67943;54.412;9.502;2023-11-18T01:16:47;18.25;;;10.50;;
78622;SDS011;67943;54.412;9.502;2023-11-18T01:21:49;16.63;;;9.73;;
78622;SDS011;67943;54.412;9.502;2023-11-18T01:26:53;16.58;;;9.43;;
78622;SDS011;67943;54.412;9.502;2023-11-18T01:31:56;17.33;;;9.55;;
78622;SDS011;67943;54.412;9.502;2023-11-18T01:36:58;14.68;;;8.23;;
78622;SDS011;67943;54.412;9.502;2023-11-18T01:42:00;18.48;;;9.95;;
78622;SDS011;67943;54.412;9.502;2023-11-18T01:47:03;18.23;;;10.43;;
78622;SDS011;67943;54.412;9.502;2023-11-18T01:52:06;17.45;;;9.52;;
78622;SDS011;67943;54.412;9.502;2023-11-18T01:57:08;16.40;;;8.68;;
78622;SDS011;67943;54.412;9.502;2023-11-18T02:02:11;13.90;;;8.27;;
78622;SDS011;67943;54.412;9.502;2023-11-18T02:07:13;16.45;;;9.48;;
78622;SDS011;67943;54.412;9.502;2023-11-18T02:12:18;17.83;;;9.13;;
78622;SDS011;67943;54.412;9.502;2023-11-18T02:17:24;16.90;;;8.55;;
78622;SDS011;67943;54.412;9.502;2023-11-18T02:22:27;14.25;;;7.95;;
78622;SDS011;67943;54.412;9.502;2023-11-18T02:27:30;14.18;;;8.50;;
78622;SDS011;67943;54.412;9.502;2023-11-18T02:32:35;16.17;;;8.57;;
78622;SDS011;67943;54.412;9.502;2023-11-18T02:37:42;13.43;;;7.65;;
78622;SDS011;67943;54.412;9.502;2023-11-18T02:42:48;14.57;;;8.20;;
78622;SDS011;67943;54.412;9.502;2023-11-18T02:47:53;16.77;;;9.07;;
78622;SDS011;67943;54.412;9.502;2023-11-18T02:52:57;21.67;;;9.13;;
78622;SDS011;67943;54.412;9.502;2023-11-18T02:58:00;20.73;;;9.48;;
78622;SDS011;67943;54.412;9.502;2023-11-18T03:03:02;22.80;;;11.27;;
78622;SDS011;67943;54.412;9.502;2023-11-18T03:08:04;17.67;;;9.48;;
78622;SDS011;67943;54.412;9.502;2023-11-18T03:13:08;18.30;;;9.57;;
78622;SDS011;67943;54.412;9.502;2023-11-18T03:18:10;18.63;;;10.05;;
78622;SDS011;67943;54.412;9.502;2023-11-18T03:23:11;16.67;;;9.27;;
78622;SDS011;67943;54.412;9.502;2023-11-18T03:28:14;19.73;;;10.23;;
78622;SDS011;67943;54.412;9.502;2023-11-18T03:33:15;21.38;;;9.77;;
78622;SDS011;67943;54.412;9.502;2023-11-18T03:38:17;21.23;;;9.88;;
78622;SDS011;67943;54.412;9.502;2023-11-18T03:43:20;13.95;;;8.15;;
78622;SDS011;67943;54.412;9.502;2023-11-18T03:48:22;14.88;;;8.23;;
78622;SDS011;67943;54.412;9.502;2023-11-18T03:53:23;20.98;;;9.80;;
78622;SDS011;67943;54.412;9.502;2023-11-18T03:58:26;16.48;;;8.82;;
78622;SDS011;67943;54.412;9.502;2023-11-18T04:03:28;13.98;;;7.93;;
78622;SDS011;67943;54.412;9.502;2023-11-18T04:08:29;12.48;;;7.00;;
78622;SDS011;67943;54.412;9.502;2023-11-18T04:13:32;15.35;;;8.45;;
78622;SDS011;67943;54.412;9.502;2023-11-18T04:18:33;12.60;;;7.55;;
78622;SDS011;67943;54.412;9.502;2023-11-18T04:23:36;13.95;;;7.80;;
78622;SDS011;67943;54.412;9.502;2023-11-18T04:28:39;14.43;;;8.00;;
78622;SDS011;67943;54.412;9.502;2023-11-18T04:33:40;13.40;;;7.95;;
78622;SDS011;67943;54.412;9.502;2023-11-18T04:38:42;13.68;;;7.72;;
78622;SDS011;67943;54.412;9.502;2023-11-18T04:43:45;14.07;;;8.27;;
78622;SDS011;67943;54.412;9.502;2023-11-18T04:48:47;17.65;;;9.77;;
78622;SDS011;67943;54.412;9.502;2023-11-18T04:53:49;16.27;;;8.35;;
78622;SDS011;67943;54.412;9.502;2023-11-18T04:58:52;16.52;;;9.70;;
78622;SDS011;67943;54.412;9.502;2023-11-18T05:03:54;19.55;;;9.82;;
78622;SDS011;67943;54.412;9.502;2023-11-18T05:08:55;20.88;;;11.18;;
78622;SDS011;67943;54.412;9.502;2023-11-18T05:13:58;16.40;;;8.82;;
78622;SDS011;67943;54.412;9.502;2023-11-18T05:19:00;17.88;;;9.77;;
78622;SDS011;67943;54.412;9.502;2023-11-18T05:24:03;16.83;;;9.20;;
78622;SDS011;67943;54.412;9.502;2023-11-18T05:29:06;15.70;;;9.30;;
78622;SDS011;67943;54.412;9.502;2023-11-18T05:34:07;14.02;;;8.48;;
78622;SDS011;67943;54.412;9.502;2023-11-18T05:39:09;15.57;;;8.35;;
78622;SDS011;67943;54.412;9.502;2023-11-18T05:44:12;16.35;;;9.23;;
78622;SDS011;67943;54.412;9.502;2023-11-18T05:49:17;17.35;;;9.70;;
78622;SDS011;67943;54.412;9.502;2023-11-18T05:54:24;16.80;;;9.43;;
78622;SDS011;67943;54.412;9.502;2023-11-18T05:59:27;15.15;;;8.73;;
78622;SDS011;67943;54.412;9.502;2023-11-18T06:04:28;17.77;;;10.10;;
78622;SDS011;67943;54.412;9.502;2023-11-18T06:09:31;17.17;;;9.27;;
78622;SDS011;67943;54.412;9.502;2023-11-18T06:14:33;15.98;;;8.85;;
78622;SDS011;67943;54.412;9.502;2023-11-18T06:19:35;16.30;;;9.25;;
78622;SDS011;67943;54.412;9.502;2023-11-18T06:24:37;15.27;;;8.68;;
78622;SDS011;67943;54.412;9.502;2023-11-18T06:29:40;18.65;;;9.82;;
78622;SDS011;67943;54.412;9.502;2023-11-18T06:34:42;14.68;;;8.43;;
78622;SDS011;67943;54.412;9.502;2023-11-18T06:39:43;16.83;;;8.98;;
78622;SDS011;67943;54.412;9.502;2023-11-18T06:44:49;17.95;;;9.45;;
78622;SDS011;67943;54.412;9.502;2023-11-18T06:49:50;15.30;;;8.27;;
78622;SDS011;67943;54.412;9.502;2023-11-18T06:54:53;15.60;;;8.52;;
78622;SDS011;67943;54.412;9.502;2023-11-18T06:59:56;15.63;;;8.63;;
78622;SDS011;67943;54.412;9.502;2023-11-18T07:04:57;15.73;;;9.07;;
78622;SDS011;67943;54.412;9.502;2023-11-18T07:09:59;17.25;;;9.52;;
78622;SDS011;67943;54.412;9.502;2023-11-18T07:15:02;16.65;;;8.27;;
78622;SDS011;67943;54.412;9.502;2023-11-18T07:20:04;18.90;;;9.90;;
78622;SDS011;67943;54.412;9.502;2023-11-18T07:25:07;19.95;;;10.38;;
78622;SDS011;67943;54.412;9.502;2023-11-18T07:30:11;20.17;;;10.10;;
78622;SDS011;67943;54.412;9.502;2023-11-18T07:35:14;21.25;;;10.00;;
78622;SDS011;67943;54.412;9.502;2023-11-18T07:40:15;39.53;;;11.75;;
78622;SDS011;67943;54.412;9.502;2023-11-18T07:45:23;23.92;;;10.82;;
78622;SDS011;67943;54.412;9.502;2023-11-18T07:50:25;23.27;;;11.40;;
78622;SDS011;67943;54.412;9.502;2023-11-18T07:55:26;25.35;;;11.50;;
78622;SDS011;67943;54.412;9.502;2023-11-18T08:00:29;22.88;;;11.15;;
78622;SDS011;67943;54.412;9.502;2023-11-18T08:05:31;17.92;;;9.25;;
78622;SDS011;67943;54.412;9.502;2023-11-18T08:10:33;23.85;;;11.07;;
78622;SDS011;67943;54.412;9.502;2023-11-18T08:15:39;22.33;;;11.27;;
78622;SDS011;67943;54.412;9.502;2023-11-18T08:20:42;21.05;;;11.30;;
78622;SDS011;67943;54.412;9.502;2023-11-18T08:25:44;21.35;;;10.85;;
78622;SDS011;67943;54.412;9.502;2023-11-18T08:30:48;16.52;;;8.80;;
78622;SDS011;67943;54.412;9.502;2023-11-18T08:35:51;18.05;;;9.15;;
78622;SDS011;67943;54.412;9.502;2023-11-18T08:40:53;16.38;;;8.80;;
78622;SDS011;67943;54.412;9.502;2023-11-18T08:45:56;14.27;;;8.45;;
78622;SDS011;67943;54.412;9.502;2023-11-18T08:50:58;17.48;;;9.27;;
78622;SDS011;67943;54.412;9.502;2023-11-18T08:56:02;15.55;;;9.30;;
78622;SDS011;67943;54.412;9.502;2023-11-18T09:01:07;15.25;;;8.52;;
78622;SDS011;67943;54.412;9.502;2023-11-18T09:06:14;18.48;;;8.95;;
78622;SDS011;67943;54.412;9.502;2023-11-18T09:11:22;16.20;;;8.95;;
78622;SDS011;67943;54.412;9.502;2023-11-18T09:16:28;15.80;;;8.65;;
78622;SDS011;67943;54.412;9.502;2023-11-18T09:21:30;15.57;;;8.48;;
78622;SDS011;67943;54.412;9.502;2023-11-18T09:26:35;13.60;;;7.72;;
78622;SDS011;67943;54.412;9.502;2023-11-18T09:31:38;13.45;;;8.07;;
78622;SDS011;67943;54.412;9.502;2023-11-18T09:36:42;13.40;;;7.57;;
78622;SDS011;67943;54.412;9.502;2023-11-18T09:41:44;10.70;;;6.22;;
78622;SDS011;67943;54.412;9.502;2023-11-18T09:46:47;10.10;;;6.13;;
78622;SDS011;67943;54.412;9.502;2023-11-18T09:51:57;11.80;;;5.97;;
78622;SDS011;67943;54.412;9.502;2023-11-18T09:57:03;8.82;;;5.18;;
78622;SDS011;67943;54.412;9.502;2023-11-18T10:02:11;9.80;;;5.57;;
78622;SDS011;67943;54.412;9.502;2023-11-18T10:07:13;7.63;;;4.85;;
78622;SDS011;67943;54.412;9.502;2023-11-18T10:12:16;6.88;;;5.05;;
78622;SDS011;67943;54.412;9.502;2023-11-18T10:17:25;6.03;;;4.22;;
78622;SDS011;67943;54.412;9.502;2023-11-18T10:22:28;6.60;;;3.80;;
78622;SDS011;67943;54.412;9.502;2023-11-18T10:27:32;4.47;;;2.97;;
78622;SDS011;67943;54.412;9.502;2023-11-18T10:32:36;3.78;;;2.70;;
78622;SDS011;67943;54.412;9.502;2023-11-18T10:37:39;3.10;;;2.35;;
78622;SDS011;67943;54.412;9.502;2023-11-18T10:42:43;2.67;;;2.08;;
78622;SDS011;67943;54.412;9.502;2023-11-18T10:47:50;3.15;;;2.30;;
78622;SDS011;67943;54.412;9.502;2023-11-18T10:52:52;2.28;;;1.92;;
78622;SDS011;67943;54.412;9.502;2023-11-18T10:57:54;2.88;;;1.83;;
78622;SDS011;67943;54.412;9.502;2023-11-18T11:02:58;2.63;;;1.80;;
78622;SDS011;67943;54.412;9.502;2023-11-18T11:08:01;2.50;;;1.85;;
78622;SDS011;67943;54.412;9.502;2023-11-18T11:13:05;2.97;;;1.98;;
78622;SDS011;67943;54.412;9.502;2023-11-18T11:18:10;4.47;;;2.35;;
78622;SDS011;67943;54.412;9.502;2023-11-18T11:23:18;5.38;;;2.70;;
78622;SDS011;67943;54.412;9.502;2023-11-18T11:28:23;3.70;;;2.72;;
78622;SDS011;67943;54.412;9.502;2023-11-18T11:33:32;3.47;;;2.10;;
78622;SDS011;67943;54.412;9.502;2023-11-18T11:38:40;3.97;;;2.50;;
78622;SDS011;67943;54.412;9.502;2023-11-18T11:43:47;3.28;;;2.40;;
78622;SDS011;67943;54.412;9.502;2023-11-18T11:48:51;3.17;;;2.38;;
78622;SDS011;67943;54.412;9.502;2023-11-18T11:53:55;4.30;;;2.65;;
78622;SDS011;67943;54.412;9.502;2023-11-18T11:59:04;3.85;;;2.78;;
78622;SDS011;67943;54.412;9.502;2023-11-18T12:04:09;4.03;;;2.83;;
78622;SDS011;67943;54.412;9.502;2023-11-18T12:09:20;4.80;;;2.80;;
78622;SDS011;67943;54.412;9.502;2023-11-18T12:14:22;4.15;;;2.60;;
78622;SDS011;67943;54.412;9.502;2023-11-18T12:19:42;4.00;;;2.60;;
78622;SDS011;67943;54.412;9.502;2023-11-18T12:30:39;5.05;;;2.78;;
78622;SDS011;67943;54.412;9.502;2023-11-18T12:36:18;3.55;;;2.67;;
78622;SDS011;67943;54.412;9.502;2023-11-18T12:41:55;4.90;;;2.83;;
78622;SDS011;67943;54.412;9.502;2023-11-18T12:47:06;3.40;;;2.42;;
78622;SDS011;67943;54.412;9.502;2023-11-18T12:52:20;3.92;;;2.58;;
78622;SDS011;67943;54.412;9.502;2023-11-18T12:57:26;5.30;;;3.08;;
78622;SDS011;67943;54.412;9.502;2023-11-18T13:02:31;4.88;;;3.10;;
78622;SDS011;67943;54.412;9.502;2023-11-18T13:07:34;6.28;;;3.33;;
78622;SDS011;67943;54.412;9.502;2023-11-18T13:12:36;5.55;;;3.40;;
78622;SDS011;67943;54.412;9.502;2023-11-18T13:17:38;6.68;;;3.80;;
78622;SDS011;67943;54.412;9.502;2023-11-18T13:22:42;6.75;;;3.90;;
78622;SDS011;67943;54.412;9.502;2023-11-18T13:27:44;5.93;;;4.00;;
78622;SDS011;67943;54.412;9.502;2023-11-18T13:32:46;9.95;;;7.45;;
78622;SDS011;67943;54.412;9.502;2023-11-18T13:37:51;7.90;;;4.53;;
78622;SDS011;67943;54.412;9.502;2023-11-18T13:43:02;9.55;;;4.97;;
78622;SDS011;67943;54.412;9.502;2023-11-18T13:48:05;10.15;;;4.28;;
78622;SDS011;67943;54.412;9.502;2023-11-18T13:53:10;6.15;;;4.20;;
78622;SDS011;67943;54.412;9.502;2023-11-18T13:58:12;6.43;;;4.38;;
78622;SDS011;67943;54.412;9.502;2023-11-18T14:03:14;8.18;;;4.63;;
78622;SDS011;67943;54.412;9.502;2023-11-18T14:08:18;8.30;;;4.20;;
78622;SDS011;67943;54.412;9.502;2023-11-18T14:13:20;8.90;;;4.65;;
78622;SDS011;67943;54.412;9.502;2023-11-18T14:18:22;10.80;;;6.40;;
78622;SDS011;67943;54.412;9.502;2023-11-18T14:23:25;9.50;;;5.63;;
78622;SDS011;67943;54.412;9.502;2023-11-18T14:28:26;7.63;;;4.05;;
78622;SDS011;67943;54.412;9.502;2023-11-18T14:33:29;7.88;;;4.93;;
78622;SDS011;67943;54.412;9.502;2023-11-18T14:38:35;6.45;;;4.35;;
78622;SDS011;67943;54.412;9.502;2023-11-18T14:43:37;7.35;;;4.80;;
78622;SDS011;67943;54.412;9.502;2023-11-18T14:48:39;7.35;;;4.50;;
78622;SDS011;67943;54.412;9.502;2023-11-18T14:53:43;9.38;;;5.47;;
78622;SDS011;67943;54.412;9.502;2023-11-18T14:58:44;7.55;;;3.85;;
78622;SDS011;67943;54.412;9.502;2023-11-18T15:03:49;6.40;;;3.63;;
78622;SDS011;67943;54.412;9.502;2023-11-18T15:08:52;7.35;;;4.30;;
78622;SDS011;67943;54.412;9.502;2023-11-18T15:13:54;6.05;;;3.85;;
78622;SDS011;67943;54.412;9.502;2023-11-18T15:18:56;8.23;;;4.93;;
78622;SDS011;67943;54.412;9.502;2023-11-18T15:23:59;8.63;;;5.32;;
78622;SDS011;67943;54.412;9.502;2023-11-18T15:29:01;7.78;;;5.03;;
78622;SDS011;67943;54.412;9.502;2023-11-18T15:34:09;9.65;;;5.10;;
78622;SDS011;67943;54.412;9.502;2023-11-18T15:39:13;9.05;;;4.90;;
78622;SDS011;67943;54.412;9.502;2023-11-18T15:44:15;8.98;;;5.00;;
78622;SDS011;67943;54.412;9.502;2023-11-18T15:49:17;8.45;;;4.80;;
78622;SDS011;67943;54.412;9.502;2023-11-18T15:54:21;6.88;;;4.40;;
78622;SDS011;67943;54.412;9.502;2023-11-18T15:59:23;7.85;;;5.10;;
78622;SDS011;67943;54.412;9.502;2023-11-18T16:04:26;10.05;;;5.45;;
78622;SDS011;67943;54.412;9.502;2023-11-18T16:09:29;13.40;;;6.93;;
78622;SDS011;67943;54.412;9.502;2023-11-18T16:14:30;7.65;;;4.82;;
78622;SDS011;67943;54.412;9.502;2023-11-18T16:19:32;7.95;;;4.68;;
78622;SDS011;67943;54.412;9.502;2023-11-18T16:24:35;8.07;;;4.60;;
78622;SDS011;67943;54.412;9.502;2023-11-18T16:29:36;7.78;;;4.63;;
78622;SDS011;67943;54.412;9.502;2023-11-18T16:34:38;13.95;;;7.93;;
78622;SDS011;67943;54.412;9.502;2023-11-18T16:39:40;18.42;;;10.18;;
78622;SDS011;67943;54.412;9.502;2023-11-18T16:44:42;19.60;;;10.30;;
78622;SDS011;67943;54.412;9.502;2023-11-18T16:49:43;10.90;;;6.60;;
78622;SDS011;67943;54.412;9.502;2023-11-18T16:54:46;15.57;;;9.30;;
78622;SDS011;67943;54.412;9.502;2023-11-18T16:59:48;16.83;;;10.05;;
78622;SDS011;67943;54.412;9.502;2023-11-18T17:04:50;8.30;;;4.90;;
78622;SDS011;67943;54.412;9.502;2023-11-18T17:09:52;7.60;;;4.75;;
78622;SDS011;67943;54.412;9.502;2023-11-18T17:14:54;8.73;;;5.07;;
78622;SDS011;67943;54.412;9.502;2023-11-18T17:19:56;7.88;;;5.13;;
78622;SDS011;67943;54.412;9.502;2023-11-18T17:24:59;9.00;;;5.38;;
78622;SDS011;67943;54.412;9.502;2023-11-18T17:30:00;7.15;;;4.22;;
78622;SDS011;67943;54.412;9.502;2023-11-18T17:35:04;8.48;;;4.43;;
78622;SDS011;67943;54.412;9.502;2023-11-18T17:40:07;9.38;;;5.30;;
78622;SDS011;67943;54.412;9.502;2023-11-18T17:45:11;9.52;;;5.00;;
78622;SDS011;67943;54.412;9.502;2023-11-18T17:50:13;8.43;;;5.28;;
78622;SDS011;67943;54.412;9.502;2023-11-18T17:55:18;9.32;;;5.47;;
78622;SDS011;67943;54.412;9.502;2023-11-18T18:00:20;9.55;;;5.43;;
78622;SDS011;67943;54.412;9.502;2023-11-18T18:05:22;11.10;;;5.53;;
78622;SDS011;67943;54.412;9.502;2023-11-18T18:10:25;10.98;;;5.63;;
78622;SDS011;67943;54.412;9.502;2023-11-18T18:15:28;16.17;;;9.95;;
78622;SDS011;67943;54.412;9.502;2023-11-18T18:20:30;12.88;;;7.43;;
78622;SDS011;67943;54.412;9.502;2023-11-18T18:25:32;16.17;;;9.52;;
78622;SDS011;67943;54.412;9.502;2023-11-18T18:30:34;12.57;;;7.43;;
78622;SDS011;67943;54.412;9.502;2023-11-18T18:35:36;18.80;;;9.35;;
78622;SDS011;67943;54.412;9.502;2023-11-18T18:40:41;12.75;;;6.78;;
78622;SDS011;67943;54.412;9.502;2023-11-18T18:45:42;20.05;;;10.75;;
78622;SDS011;67943;54.412;9.502;2023-11-18T18:50:44;13.23;;;7.95;;
78622;SDS011;67943;54.412;9.502;2023-11-18T18:55:47;13.77;;;7.60;;
78622;SDS011;67943;54.412;9.502;2023-11-18T19:00:48;11.98;;;7.03;;
78622;SDS011;67943;54.412;9.502;2023-11-18T19:05:52;13.60;;;7.40;;
78622;SDS011;67943;54.412;9.502;2023-11-18T19:10:55;16.83;;;8.75;;
78622;SDS011;67943;54.412;9.502;2023-11-18T19:15:56;17.40;;;10.27;;
78622;SDS011;67943;54.412;9.502;2023-11-18T19:20:58;31.67;;;16.08;;
78622;SDS011;67943;54.412;9.502;2023-11-18T19:26:00;14.15;;;7.43;;
78622;SDS011;67943;54.412;9.502;2023-11-18T19:31:02;13.63;;;7.07;;
78622;SDS011;67943;54.412;9.502;2023-11-18T19:36:05;12.98;;;7.47;;
78622;SDS011;67943;54.412;9.502;2023-11-18T19:41:11;16.48;;;8.15;;
78622;SDS011;67943;54.412;9.502;2023-11-18T19:46:13;14.90;;;7.60;;
78622;SDS011;67943;54.412;9.502;2023-11-18T19:51:14;16.67;;;8.52;;
78622;SDS011;67943;54.412;9.502;2023-11-18T19:56:17;13.45;;;8.13;;
78622;SDS011;67943;54.412;9.502;2023-11-18T20:01:19;15.85;;;8.90;;
78622;SDS011;67943;54.412;9.502;2023-11-18T20:06:20;16.98;;;8.93;;
78622;SDS011;67943;54.412;9.502;2023-11-18T20:11:23;15.50;;;8.65;;
78622;SDS011;67943;54.412;9.502;2023-11-18T20:16:24;17.98;;;9.27;;
78622;SDS011;67943;54.412;9.502;2023-11-18T20:21:26;16.70;;;8.70;;
78622;SDS011;67943;54.412;9.502;2023-11-18T20:26:30;16.25;;;9.52;;
78622;SDS011;67943;54.412;9.502;2023-11-18T20:31:31;17.13;;;9.13;;
78622;SDS011;67943;54.412;9.502;2023-11-18T20:36:33;16.17;;;9.07;;
78622;SDS011;67943;54.412;9.502;2023-11-18T20:41:35;17.13;;;9.15;;
78622;SDS011;67943;54.412;9.502;2023-11-18T20:46:37;16.35;;;9.05;;
78622;SDS011;67943;54.412;9.502;2023-11-18T20:51:38;16.63;;;9.50;;
78622;SDS011;67943;54.412;9.502;2023-11-18T20:56:41;18.83;;;8.82;;
78622;SDS011;67943;54.412;9.502;2023-11-18T21:01:45;18.13;;;9.07;;
78622;SDS011;67943;54.412;9.502;2023-11-18T21:06:46;16.48;;;8.73;;
78622;SDS011;67943;54.412;9.502;2023-11-18T21:11:49;16.05;;;8.63;;
78622;SDS011;67943;54.412;9.502;2023-11-18T21:16:53;16.77;;;8.45;;
78622;SDS011;67943;54.412;9.502;2023-11-18T21:21:55;18.42;;;9.32;;
78622;SDS011;67943;54.412;9.502;2023-11-18T21:26:58;20.83;;;9.18;;
78622;SDS011;67943;54.412;9.502;2023-11-18T21:31:59;18.83;;;9.40;;
78622;SDS011;67943;54.412;9.502;2023-11-18T21:37:02;18.98;;;10.45;;
78622;SDS011;67943;54.412;9.502;2023-11-18T21:42:05;17.80;;;9.23;;
78622;SDS011;67943;54.412;9.502;2023-11-18T21:47:07;17.77;;;9.32;;
78622;SDS011;67943;54.412;9.502;2023-11-18T21:52:10;19.50;;;9.93;;
78622;SDS011;67943;54.412;9.502;2023-11-18T21:57:13;17.00;;;8.82;;
78622;SDS011;67943;54.412;9.502;2023-11-18T22:02:15;15.40;;;8.60;;
78622;SDS011;67943;54.412;9.502;2023-11-18T22:07:17;17.55;;;8.85;;
78622;SDS011;67943;54.412;9.502;2023-11-18T22:12:20;15.63;;;9.07;;
78622;SDS011;67943;54.412;9.502;2023-11-18T22:17:21;17.30;;;8.77;;
78622;SDS011;67943;54.412;9.502;2023-11-18T22:22:23;18.95;;;9.73;;
78622;SDS011;67943;54.412;9.502;2023-11-18T22:27:26;17.08;;;8.65;;
78622;SDS011;67943;54.412;9.502;2023-11-18T22:32:27;14.85;;;7.85;;
78622;SDS011;67943;54.412;9.502;2023-11-18T22:37:29;15.63;;;7.82;;
78622;SDS011;67943;54.412;9.502;2023-11-18T22:42:32;14.60;;;7.85;;
78622;SDS011;67943;54.412;9.502;2023-11-18T22:47:34;13.65;;;7.57;;
78622;SDS011;67943;54.412;9.502;2023-11-18T22:52:36;12.77;;;7.50;;
78622;SDS011;67943;54.412;9.502;2023-11-18T22:57:39;14.82;;;7.55;;
78622;SDS011;67943;54.412;9.502;2023-11-18T23:02:41;12.63;;;6.53;;
78622;SDS011;67943;54.412;9.502;2023-11-18T23:07:42;12.25;;;6.80;;
78622;SDS011;67943;54.412;9.502;2023-11-18T23:12:46;12.77;;;7.25;;
78622;SDS011;67943;54.412;9.502;2023-11-18T23:17:47;13.60;;;6.97;;
78622;SDS011;67943;54.412;9.502;2023-11-18T23:22:50;14.30;;;7.18;;
78622;SDS011;67943;54.412;9.502;2023-11-18T23:27:53;11.88;;;6.70;;
78622;SDS011;67943;54.412;9.502;2023-11-18T23:32:54;12.85;;;6.88;;
78622;SDS011;67943;54.412;9.502;2023-11-18T23:37:56;10.93;;;6.40;;
78622;SDS011;67943;54.412;9.502;2023-11-18T23:42:59;12.30;;;6.57;;
78622;SDS011;67943;54.412;9.502;2023-11-18T23:48:01;13.98;;;6.75;;
78622;SDS011;67943;54.412;9.502;2023-11-18T23:53:02;11.45;;;6.35;;
78622;SDS011;67943;54.412;9.502;2023-11-18T23:58:05;12.20;;;6.38;;
